createdAt,value
2023-04-15T00:01:02.741Z,92878.03
2023-04-15T00:03:30.247Z,92872.00
2023-04-15T00:05:58.072Z,92879.16
2023-04-15T00:08:25.612Z,92878.19
2023-04-15T00:10:54.242Z,92884.25
2023-04-15T00:13:21.201Z,92890.19
2023-04-15T00:15:48.196Z,92897.06
2023-04-15T00:18:15.233Z,92902.16
2023-04-15T00:20:42.451Z,92916.38
2023-04-15T00:23:09.493Z,92926.13
2023-04-15T00:25:36.766Z,92912.84
2023-04-15T00:28:05.334Z,92898.03
2023-04-15T00:30:32.485Z,92902.81
2023-04-15T00:32:59.649Z,92909.19
2023-04-15T00:35:26.688Z,92902.34
2023-04-15T00:37:53.996Z,92893.53
2023-04-15T00:40:21.914Z,92905.38
2023-04-15T00:42:49.949Z,92913.34
2023-04-15T00:45:19.093Z,92916.84
2023-04-15T00:47:46.342Z,92908.25
2023-04-15T00:50:13.317Z,92914.28
2023-04-15T00:52:40.905Z,92916.19
2023-04-15T00:55:09.690Z,92916.53
2023-04-15T00:57:37.079Z,92913.31
2023-04-15T01:00:05.765Z,92919.19
2023-04-15T01:02:34.128Z,92920.81
2023-04-15T01:05:02.371Z,92921.56
2023-04-15T01:07:29.457Z,92919.34
2023-04-15T01:09:56.935Z,92919.19
2023-04-15T01:12:25.483Z,92921.09
2023-04-15T01:14:52.910Z,92914.28
2023-04-15T01:17:21.029Z,92907.44
2023-04-15T01:19:49.632Z,92916.34
2023-04-15T01:22:16.499Z,92917.66
2023-04-15T01:24:46.693Z,92901.34
2023-04-15T01:27:15.928Z,92895.47
2023-04-15T01:29:43.148Z,92897.72
2023-04-15T01:32:10.136Z,92899.47
2023-04-15T01:34:37.086Z,92901.22
2023-04-15T01:37:04.043Z,92902.66
2023-04-15T01:39:31.146Z,92901.03
2023-04-15T01:41:58.212Z,92904.69
2023-04-15T01:44:26.730Z,92907.25
2023-04-15T01:46:53.702Z,92910.91
2023-04-15T01:49:20.820Z,92911.06
2023-04-15T01:51:48.127Z,92919.16
2023-04-15T01:54:15.093Z,92918.78
2023-04-15T01:56:42.377Z,92916.38
2023-04-15T01:59:09.983Z,92922.81
2023-04-15T02:01:39.791Z,92924.72
2023-04-15T02:04:07.448Z,92930.94
2023-04-15T02:06:34.483Z,92927.72
2023-04-15T02:09:01.757Z,92922.81
2023-04-15T02:11:29.084Z,92915.91
2023-04-15T02:13:56.965Z,92912.88
2023-04-15T02:16:26.142Z,92909.16
2023-04-15T02:18:54.533Z,92916.09
2023-04-15T02:21:21.668Z,92916.19
2023-04-15T02:23:48.888Z,92914.25
2023-04-15T02:26:15.958Z,92918.41
2023-04-15T02:28:43.082Z,92917.13
2023-04-15T02:31:10.160Z,92907.28
2023-04-15T02:33:37.902Z,92906.81
2023-04-15T02:36:07.634Z,92899.38
2023-04-15T02:38:34.648Z,92909.22
2023-04-15T02:41:01.710Z,92901.38
2023-04-15T02:43:28.789Z,92910.75
2023-04-15T02:45:55.946Z,92900.38
2023-04-15T02:48:23.015Z,92907.84
2023-04-15T02:50:49.955Z,92904.97
2023-04-15T02:53:20.113Z,92902.09
2023-04-15T02:55:47.188Z,92908.19
2023-04-15T02:58:14.572Z,92903.72
2023-04-15T03:00:41.915Z,92902.91
2023-04-15T03:03:09.160Z,92912.97
2023-04-15T03:05:38.992Z,92916.97
2023-04-15T03:08:06.709Z,92916.06
2023-04-15T03:10:35.053Z,92925.75
2023-04-15T03:13:02.258Z,92926.84
2023-04-15T03:15:29.508Z,92928.28
2023-04-15T03:17:56.651Z,92934.06
2023-04-15T03:20:24.139Z,92939.03
2023-04-15T03:22:51.724Z,92936.06
2023-04-15T03:25:20.467Z,92936.38
2023-04-15T03:27:48.843Z,92939.06
2023-04-15T03:30:17.265Z,92940.66
2023-04-15T03:32:44.360Z,92945.66
2023-04-15T03:35:11.400Z,92941.03
2023-04-15T03:37:38.346Z,92941.03
2023-04-15T03:40:06.349Z,92959.38
2023-04-15T03:42:33.319Z,92962.94
2023-04-15T03:45:01.725Z,92966.00
2023-04-15T03:47:28.726Z,92970.00
2023-04-15T03:49:55.767Z,92979.53
2023-04-15T03:52:22.743Z,92979.41
2023-04-15T03:54:49.956Z,92982.41
2023-04-15T03:57:16.852Z,92979.06
2023-04-15T03:59:44.006Z,92975.00
2023-04-15T04:02:12.401Z,92974.53
2023-04-15T04:04:39.573Z,92980.72
2023-04-15T04:07:06.620Z,92982.84
2023-04-15T04:09:33.594Z,92987.63
2023-04-15T04:12:01.342Z,92991.72
2023-04-15T04:14:29.911Z,92976.66
2023-04-15T04:16:57.620Z,92973.72
2023-04-15T04:19:26.334Z,92980.34
2023-04-15T04:21:53.426Z,92987.75
2023-04-15T04:24:20.665Z,92981.91
2023-04-15T04:26:47.942Z,92983.06
2023-04-15T04:29:14.922Z,92975.19
2023-04-15T04:31:41.988Z,92973.34
2023-04-15T04:34:08.973Z,92983.47
2023-04-15T04:36:37.336Z,92993.44
2023-04-15T04:39:04.291Z,92988.91
2023-04-15T04:41:32.369Z,92991.19
2023-04-15T04:43:59.483Z,92982.13
2023-04-15T04:46:26.596Z,92988.75
2023-04-15T04:48:53.478Z,92988.50
2023-04-15T04:51:20.892Z,93003.22
2023-04-15T04:53:49.300Z,93002.16
2023-04-15T04:56:16.443Z,92986.06
2023-04-15T04:58:46.835Z,92990.91
2023-04-15T05:01:13.881Z,93005.31
2023-04-15T05:03:41.054Z,93028.47
2023-04-15T05:06:08.936Z,93027.56
2023-04-15T05:08:36.711Z,93035.75
2023-04-15T05:11:06.239Z,93047.13
2023-04-15T05:13:33.290Z,93048.59
2023-04-15T05:16:00.286Z,93051.00
2023-04-15T05:18:27.446Z,93056.13
2023-04-15T05:20:54.408Z,93051.66
2023-04-15T05:23:21.396Z,93052.63
2023-04-15T05:25:48.367Z,93046.88
2023-04-15T05:28:17.085Z,93046.41
2023-04-15T05:30:44.092Z,93051.34
2023-04-15T05:33:11.160Z,93042.72
2023-04-15T05:35:38.161Z,93041.13
2023-04-15T05:38:05.207Z,93040.81
2023-04-15T05:40:32.145Z,93042.06
2023-04-15T05:42:59.180Z,93033.25
2023-04-15T05:45:27.656Z,93036.91
2023-04-15T05:47:54.701Z,93041.72
2023-04-15T05:50:21.794Z,93047.47
2023-04-15T05:52:48.891Z,93042.47
2023-04-15T05:55:16.245Z,93048.03
2023-04-15T05:57:43.162Z,93050.75
2023-04-15T06:00:11.415Z,93056.50
2023-04-15T06:02:40.001Z,93058.91
2023-04-15T06:05:09.997Z,93061.72
2023-04-15T06:07:37.181Z,93063.78
2023-04-15T06:10:04.933Z,93064.34
2023-04-15T06:12:32.042Z,93062.78
2023-04-15T06:15:00.127Z,93057.44
2023-04-15T06:17:27.621Z,93064.03
2023-04-15T06:19:56.262Z,93072.75
2023-04-15T06:22:23.508Z,93059.66
2023-04-15T06:24:51.642Z,93069.03
2023-04-15T06:27:19.115Z,93069.59
2023-04-15T06:29:46.318Z,93079.13
2023-04-15T06:32:13.527Z,93080.50
2023-04-15T06:34:40.771Z,93086.09
2023-04-15T06:37:11.189Z,93090.00
2023-04-15T06:39:38.400Z,93090.31
2023-04-15T06:42:05.429Z,93076.75
2023-04-15T06:44:33.906Z,93095.41
2023-04-15T06:47:01.348Z,93097.69
2023-04-15T06:49:28.440Z,93099.03
2023-04-15T06:51:55.674Z,93107.81
2023-04-15T06:54:24.196Z,93098.72
2023-04-15T06:56:51.616Z,93098.25
2023-04-15T06:59:19.060Z,93096.97
2023-04-15T07:01:46.562Z,93096.69
2023-04-15T07:04:13.604Z,93100.25
2023-04-15T07:06:41.902Z,93103.00
2023-04-15T07:09:09.047Z,93113.31
2023-04-15T07:11:37.375Z,93113.69
2023-04-15T07:14:04.117Z,93104.22
2023-04-15T07:16:31.250Z,93104.13
2023-04-15T07:18:58.397Z,93106.03
2023-04-15T07:21:25.772Z,93110.63
2023-04-15T07:23:52.767Z,93104.19
2023-04-15T07:26:19.773Z,93112.63
2023-04-15T07:28:48.250Z,93113.38
2023-04-15T07:31:16.580Z,93115.41
2023-04-15T07:33:46.218Z,93110.84
2023-04-15T07:36:13.550Z,93110.75
2023-04-15T07:38:40.507Z,93105.03
2023-04-15T07:41:07.666Z,93100.75
2023-04-15T07:43:34.617Z,93101.31
2023-04-15T07:46:02.970Z,93109.91
2023-04-15T07:48:30.116Z,93103.78
2023-04-15T07:50:57.022Z,93109.38
2023-04-15T07:53:24.112Z,93105.22
2023-04-15T07:55:51.031Z,93113.19
2023-04-15T07:58:18.017Z,93116.59
2023-04-15T08:00:45.309Z,93124.97
2023-04-15T08:03:13.765Z,93117.41
2023-04-15T08:05:41.092Z,93120.97
2023-04-15T08:08:08.516Z,93134.31
2023-04-15T08:10:35.719Z,93119.53
2023-04-15T08:13:02.861Z,93122.47
2023-04-15T08:15:29.840Z,93123.50
2023-04-15T08:17:56.816Z,93125.41
2023-04-15T08:20:25.398Z,93119.59
2023-04-15T08:22:52.718Z,93125.72
2023-04-15T08:25:22.672Z,93126.63
2023-04-15T08:27:49.773Z,93121.69
2023-04-15T08:30:16.901Z,93123.53
2023-04-15T08:32:47.096Z,93121.47
2023-04-15T08:35:14.559Z,93120.88
2023-04-15T08:37:42.976Z,93114.41
2023-04-15T08:40:11.680Z,93107.94
2023-04-15T08:42:45.827Z,93105.16
2023-04-15T08:45:13.342Z,93107.53
2023-04-15T08:47:40.777Z,93108.84
2023-04-15T08:50:09.976Z,93103.34
2023-04-15T08:52:37.333Z,93104.00
2023-04-15T08:55:08.505Z,93120.84
2023-04-15T08:57:36.199Z,93086.97
2023-04-15T09:00:05.683Z,93101.59
2023-04-15T09:02:33.173Z,93094.47
2023-04-15T09:05:00.997Z,93088.75
2023-04-15T09:07:28.035Z,93096.22
2023-04-15T09:09:54.956Z,93103.16
2023-04-15T09:12:23.252Z,93086.38
2023-04-15T09:14:50.354Z,93069.59
2023-04-15T09:17:19.781Z,93066.81
2023-04-15T09:19:46.825Z,93051.44
2023-04-15T09:22:14.482Z,93067.19
2023-04-15T09:24:43.410Z,93065.25
2023-04-15T09:27:11.301Z,93069.78
2023-04-15T09:29:41.791Z,93072.47
2023-04-15T09:32:13.298Z,93072.47
2023-04-15T09:34:40.641Z,93083.53
2023-04-15T09:37:08.116Z,93066.81
2023-04-15T09:39:48.916Z,93065.78
2023-04-15T09:42:17.190Z,93081.69
2023-04-15T09:44:45.574Z,93092.09
2023-04-15T09:47:27.796Z,93089.69
2023-04-15T09:49:58.589Z,93101.78
2023-04-15T09:52:26.141Z,93093.16
2023-04-15T09:54:55.469Z,93095.63
2023-04-15T09:57:23.714Z,93090.84
2023-04-15T09:59:52.527Z,93082.66
2023-04-15T10:02:21.424Z,93072.69
2023-04-15T10:04:49.662Z,93062.31
2023-04-15T10:07:18.186Z,93076.66
2023-04-15T10:09:47.017Z,93071.31
2023-04-15T10:12:15.147Z,93074.03
2023-04-15T10:14:43.091Z,93063.97
2023-04-15T10:17:12.727Z,93061.75
2023-04-15T10:19:40.754Z,93068.19
2023-04-15T10:22:07.684Z,93066.25
2023-04-15T10:24:34.679Z,93051.13
2023-04-15T10:27:03.819Z,93043.53
2023-04-15T10:29:30.768Z,93042.53
2023-04-15T10:31:59.268Z,93057.56
2023-04-15T10:34:28.090Z,93049.25
2023-04-15T10:36:56.614Z,93044.47
2023-04-15T10:39:42.969Z,93049.44
2023-04-15T10:42:11.307Z,93052.13
2023-04-15T10:44:39.099Z,93041.69
2023-04-15T10:47:10.886Z,93039.41
2023-04-15T10:49:45.134Z,93031.25
2023-04-15T10:52:12.771Z,93032.53
2023-04-15T10:54:39.947Z,93035.34
2023-04-15T10:57:15.112Z,93027.16
2023-04-15T11:00:13.068Z,93038.22
2023-04-15T11:02:47.366Z,93041.22
2023-04-15T11:05:16.935Z,93040.25
2023-04-15T11:07:52.198Z,93031.66
2023-04-15T11:10:52.960Z,93040.50
2023-04-15T11:13:27.219Z,93030.16
2023-04-15T11:15:58.458Z,93036.09
2023-04-15T11:18:28.251Z,93019.25
2023-04-15T11:20:57.690Z,93029.50
2023-04-15T11:23:29.663Z,93023.78
2023-04-15T11:25:58.020Z,93024.63
2023-04-15T11:28:26.527Z,93036.00
2023-04-15T11:30:55.646Z,93019.81
2023-04-15T11:33:23.894Z,93023.94
2023-04-15T11:36:09.454Z,93036.59
2023-04-15T11:38:38.242Z,93033.63
2023-04-15T11:41:05.194Z,93039.63
2023-04-15T11:43:32.546Z,93026.56
2023-04-15T11:46:01.370Z,93027.13
2023-04-15T11:48:30.829Z,93021.75
2023-04-15T11:51:01.407Z,93014.31
2023-04-15T11:53:39.491Z,93026.78
2023-04-15T11:56:07.837Z,93014.09
2023-04-15T11:58:35.534Z,93015.72
2023-04-15T12:01:03.033Z,93022.03
2023-04-15T12:03:31.676Z,93014.25
2023-04-15T12:06:15.041Z,93021.75
2023-04-15T12:08:58.540Z,93012.22
2023-04-15T12:11:44.469Z,93025.19
2023-04-15T12:14:13.953Z,93018.09
2023-04-15T12:16:49.075Z,93018.28
2023-04-15T12:19:19.484Z,93025.34
2023-04-15T12:21:48.258Z,93027.31
2023-04-15T12:24:21.207Z,93023.09
2023-04-15T12:26:50.068Z,93025.47
2023-04-15T12:29:17.928Z,93031.03
2023-04-15T12:31:52.963Z,93026.72
2023-04-15T12:34:27.096Z,93021.84
2023-04-15T12:36:54.255Z,93036.47
2023-04-15T12:39:24.401Z,93032.06
2023-04-15T12:41:51.688Z,93033.06
2023-04-15T12:44:18.931Z,93036.38
2023-04-15T12:46:46.291Z,93035.03
2023-04-15T12:49:14.939Z,93041.78
2023-04-15T12:51:42.129Z,93044.59
2023-04-15T12:54:09.192Z,93037.81
2023-04-15T12:56:37.585Z,93035.69
2023-04-15T12:59:04.932Z,93028.56
2023-04-15T13:01:31.925Z,93030.28
2023-04-15T13:03:59.213Z,93035.72
2023-04-15T13:06:26.317Z,93026.63
2023-04-15T13:08:58.498Z,93032.19
2023-04-15T13:11:26.076Z,93034.69
2023-04-15T13:13:54.500Z,93039.59
2023-04-15T13:16:22.049Z,93025.88
2023-04-15T13:18:49.219Z,93022.47
2023-04-15T13:21:17.000Z,93019.72
2023-04-15T13:23:46.630Z,93014.69
2023-04-15T13:26:13.560Z,93012.53
2023-04-15T13:28:40.571Z,93016.53
2023-04-15T13:31:09.034Z,93015.84
2023-04-15T13:33:36.537Z,93020.19
2023-04-15T13:36:03.632Z,93017.56
2023-04-15T13:38:30.599Z,93015.84
2023-04-15T13:40:57.643Z,93016.28
2023-04-15T13:43:24.635Z,93015.25
2023-04-15T13:45:51.990Z,93007.03
2023-04-15T13:48:20.381Z,93015.91
2023-04-15T13:50:47.311Z,93011.25
2023-04-15T13:53:14.316Z,93012.06
2023-04-15T13:55:42.763Z,93006.22
2023-04-15T13:58:09.979Z,93002.53
2023-04-15T14:00:37.106Z,93007.38
2023-04-15T14:03:04.386Z,93013.13
2023-04-15T14:05:33.263Z,92997.59
2023-04-15T14:08:02.117Z,93004.84
2023-04-15T14:10:29.381Z,93007.63
2023-04-15T14:12:56.373Z,93013.84
2023-04-15T14:15:23.408Z,93003.41
2023-04-15T14:17:50.552Z,93007.13
2023-04-15T14:20:17.740Z,92999.72
2023-04-15T14:22:46.339Z,93010.81
2023-04-15T14:25:23.033Z,93003.31
2023-04-15T14:27:57.681Z,92996.94
2023-04-15T14:30:24.664Z,93003.97
2023-04-15T14:32:51.602Z,93011.13
2023-04-15T14:35:18.698Z,93008.22
2023-04-15T14:37:47.000Z,93010.25
2023-04-15T14:40:14.063Z,93011.91
2023-04-15T14:42:41.169Z,93014.03
2023-04-15T14:45:09.552Z,93003.13
2023-04-15T14:47:36.707Z,93014.59
2023-04-15T14:50:04.035Z,93009.66
2023-04-15T14:52:32.306Z,93009.44
2023-04-15T14:55:00.881Z,93012.94
2023-04-15T14:57:27.834Z,93015.06
2023-04-15T14:59:56.734Z,93021.59
2023-04-15T15:02:37.367Z,93015.16
2023-04-15T15:05:05.628Z,93011.78
2023-04-15T15:07:32.743Z,93009.22
2023-04-15T15:10:01.163Z,93005.84
2023-04-15T15:12:28.187Z,93011.28
2023-04-15T15:14:55.547Z,93003.16
2023-04-15T15:17:22.692Z,92999.56
2023-04-15T15:19:49.809Z,92998.88
2023-04-15T15:22:17.632Z,93001.22
2023-04-15T15:24:45.898Z,92997.91
2023-04-15T15:27:14.252Z,92992.19
2023-04-15T15:29:41.384Z,93003.66
2023-04-15T15:32:08.397Z,92998.13
2023-04-15T15:34:35.345Z,92999.31
2023-04-15T15:37:02.366Z,92998.22
2023-04-15T15:39:29.375Z,92997.03
2023-04-15T15:41:56.532Z,92993.03
2023-04-15T15:44:24.966Z,92993.94
2023-04-15T15:46:52.050Z,92992.78
2023-04-15T15:49:19.803Z,92992.91
2023-04-15T15:51:46.851Z,92999.88
2023-04-15T15:54:13.861Z,92991.56
2023-04-15T15:56:42.161Z,92990.94
2023-04-15T15:59:09.160Z,92995.47
2023-04-15T16:01:37.596Z,92994.34
2023-04-15T16:04:04.684Z,92997.06
2023-04-15T16:06:34.446Z,92995.41
2023-04-15T16:09:02.346Z,92994.06
2023-04-15T16:11:29.489Z,92992.88
2023-04-15T16:13:56.555Z,92990.94
2023-04-15T16:16:24.336Z,92985.19
2023-04-15T16:18:52.782Z,92991.19
2023-04-15T16:21:20.373Z,92982.56
2023-04-15T16:23:47.484Z,92977.69
2023-04-15T16:26:14.472Z,92984.50
2023-04-15T16:28:41.639Z,92992.75
2023-04-15T16:31:08.731Z,92987.03
2023-04-15T16:33:35.766Z,92982.66
2023-04-15T16:36:04.867Z,92983.53
2023-04-15T16:38:31.997Z,92985.50
2023-04-15T16:41:00.828Z,92994.28
2023-04-15T16:43:28.060Z,93000.66
2023-04-15T16:45:55.233Z,93000.72
2023-04-15T16:48:22.275Z,93001.44
2023-04-15T16:50:49.452Z,92999.19
2023-04-15T16:53:17.868Z,92996.88
2023-04-15T16:55:44.880Z,92998.19
2023-04-15T16:58:11.950Z,93000.56
2023-04-15T17:00:38.986Z,92997.13
2023-04-15T17:03:06.472Z,93002.31
2023-04-15T17:05:33.736Z,92999.44
2023-04-15T17:08:00.757Z,93006.31
2023-04-15T17:10:29.235Z,93003.53
2023-04-15T17:12:56.858Z,93007.38
2023-04-15T17:15:23.995Z,93017.81
2023-04-15T17:17:51.075Z,93016.69
2023-04-15T17:20:18.446Z,93018.41
2023-04-15T17:22:45.803Z,93018.72
2023-04-15T17:25:13.580Z,93026.56
2023-04-15T17:27:41.989Z,93025.81
2023-04-15T17:30:09.834Z,93026.47
2023-04-15T17:32:37.289Z,93031.44
2023-04-15T17:35:06.567Z,93042.16
2023-04-15T17:37:33.879Z,93038.38
2023-04-15T17:40:00.944Z,93037.38
2023-04-15T17:42:27.919Z,93045.91
2023-04-15T17:44:56.375Z,93043.53
2023-04-15T17:47:23.627Z,93053.28
2023-04-15T17:49:50.603Z,93060.59
2023-04-15T17:52:17.659Z,93062.16
2023-04-15T17:54:45.837Z,93064.47
2023-04-15T17:57:12.773Z,93068.06
2023-04-15T17:59:43.961Z,93076.44
2023-04-15T18:02:12.653Z,93074.44
2023-04-15T18:04:39.890Z,93068.28
2023-04-15T18:07:07.007Z,93076.25
2023-04-15T18:09:34.096Z,93075.03
2023-04-15T18:12:02.176Z,93083.19
2023-04-15T18:14:34.616Z,93085.84
2023-04-15T18:17:02.452Z,93082.38
2023-04-15T18:19:31.780Z,93081.53
2023-04-15T18:22:00.233Z,93085.44
2023-04-15T18:24:27.810Z,93095.66
2023-04-15T18:26:54.849Z,93090.03
2023-04-15T18:29:22.047Z,93090.59
2023-04-15T18:31:49.146Z,93092.47
2023-04-15T18:34:16.179Z,93090.53
2023-04-15T18:36:44.507Z,93097.47
2023-04-15T18:39:11.228Z,93098.66
2023-04-15T18:41:38.349Z,93088.69
2023-04-15T18:44:05.536Z,93085.78
2023-04-15T18:46:32.484Z,93090.53
2023-04-15T18:48:59.506Z,93089.50
2023-04-15T18:51:27.462Z,93089.56
2023-04-15T18:53:56.056Z,93092.94
2023-04-15T18:56:22.750Z,93098.34
2023-04-15T18:59:08.863Z,93090.13
2023-04-15T19:01:36.848Z,93093.88
2023-04-15T19:04:04.029Z,93100.88
2023-04-15T19:06:31.171Z,93097.59
2023-04-15T19:08:59.617Z,93101.34
2023-04-15T19:11:26.384Z,93095.41
2023-04-15T19:13:53.440Z,93099.56
2023-04-15T19:16:20.537Z,93094.97
2023-04-15T19:18:47.533Z,93094.06
2023-04-15T19:21:14.593Z,93091.94
2023-04-15T19:23:43.053Z,93091.22
2023-04-15T19:26:11.931Z,93098.56
2023-04-15T19:28:39.022Z,93090.84
2023-04-15T19:31:06.131Z,93094.22
2023-04-15T19:33:33.194Z,93098.03
2023-04-15T19:36:01.559Z,93100.53
2023-04-15T19:38:28.356Z,93097.53
2023-04-15T19:40:55.298Z,93093.78
2023-04-15T19:43:23.827Z,93103.91
2023-04-15T19:45:53.110Z,93105.25
2023-04-15T19:48:20.160Z,93106.56
2023-04-15T19:50:47.180Z,93098.13
2023-04-15T19:53:14.344Z,93093.69
2023-04-15T19:55:41.601Z,93105.31
2023-04-15T19:58:08.528Z,93105.31
2023-04-15T20:00:36.913Z,93104.06
2023-04-15T20:03:03.802Z,93105.31
2023-04-15T20:05:30.893Z,93107.00
2023-04-15T20:07:59.829Z,93110.88
2023-04-15T20:10:27.267Z,93112.66
2023-04-15T20:12:54.273Z,93118.66
2023-04-15T20:15:23.482Z,93114.47
2023-04-15T20:17:52.293Z,93114.84
2023-04-15T20:20:19.822Z,93115.38
2023-04-15T20:22:46.945Z,93120.63
2023-04-15T20:25:14.074Z,93121.66
2023-04-15T20:27:41.112Z,93121.78
2023-04-15T20:30:09.030Z,93130.41
2023-04-15T20:32:36.510Z,93132.63
2023-04-15T20:35:05.909Z,93132.72
2023-04-15T20:37:33.620Z,93130.59
2023-04-15T20:40:01.636Z,93135.19
2023-04-15T20:42:32.552Z,93132.69
2023-04-15T20:44:59.711Z,93135.72
2023-04-15T20:47:26.820Z,93132.97
2023-04-15T20:49:54.314Z,93129.06
2023-04-15T20:52:22.664Z,93131.13
2023-04-15T20:54:50.075Z,93132.53
2023-04-15T20:57:17.310Z,93133.00
2023-04-15T20:59:44.271Z,93132.72
2023-04-15T21:02:11.629Z,93137.66
2023-04-15T21:04:38.948Z,93138.38
2023-04-15T21:07:06.035Z,93137.31
2023-04-15T21:09:34.555Z,93138.53
2023-04-15T21:12:02.297Z,93145.59
2023-04-15T21:14:29.516Z,93142.50
2023-04-15T21:16:57.014Z,93142.34
2023-04-15T21:19:23.997Z,93146.69
2023-04-15T21:21:51.052Z,93148.38
2023-04-15T21:24:17.969Z,93145.78
2023-04-15T21:26:46.356Z,93150.38
2023-04-15T21:29:13.840Z,93151.88
2023-04-15T21:31:41.077Z,93155.84
2023-04-15T21:34:08.417Z,93157.28
2023-04-15T21:36:35.372Z,93169.50
2023-04-15T21:39:02.465Z,93162.19
2023-04-15T21:41:29.683Z,93168.41
2023-04-15T21:43:58.132Z,93164.06
2023-04-15T21:46:32.749Z,93168.97
2023-04-15T21:49:00.543Z,93159.72
2023-04-15T21:51:27.800Z,93167.53
2023-04-15T21:53:54.911Z,93167.81
2023-04-15T21:56:24.397Z,93180.03
2023-04-15T21:58:54.924Z,93176.72
2023-04-15T22:01:23.631Z,93173.19
2023-04-15T22:03:51.129Z,93180.38
2023-04-15T22:06:18.564Z,93176.66
2023-04-15T22:08:56.225Z,93180.38
2023-04-15T22:11:32.507Z,93180.81
2023-04-15T22:13:59.762Z,93185.63
2023-04-15T22:16:28.638Z,93184.13
2023-04-15T22:18:56.147Z,93181.84
2023-04-15T22:21:23.396Z,93187.44
2023-04-15T22:23:51.301Z,93180.78
2023-04-15T22:26:18.266Z,93185.09
2023-04-15T22:28:45.362Z,93174.03
2023-04-15T22:31:12.392Z,93174.25
2023-04-15T22:33:40.784Z,93171.06
2023-04-15T22:36:07.901Z,93172.56
2023-04-15T22:38:34.900Z,93169.78
2023-04-15T22:41:01.916Z,93168.69
2023-04-15T22:43:28.945Z,93169.22
2023-04-15T22:45:56.630Z,93168.47
2023-04-15T22:48:23.818Z,93159.81
2023-04-15T22:50:52.177Z,93159.16
2023-04-15T22:53:19.331Z,93160.03
2023-04-15T22:55:46.786Z,93150.63
2023-04-15T22:58:14.030Z,93156.94
2023-04-15T23:00:41.151Z,93158.06
2023-04-15T23:03:08.383Z,93157.59
2023-04-15T23:05:35.552Z,93146.84
2023-04-15T23:08:03.932Z,93150.84
2023-04-15T23:10:30.739Z,93152.56
2023-04-15T23:12:57.690Z,93153.38
2023-04-15T23:15:24.646Z,93161.34
2023-04-15T23:17:51.794Z,93155.25
2023-04-15T23:20:18.742Z,93159.59
2023-04-15T23:22:45.851Z,93161.88
2023-04-15T23:25:14.251Z,93155.69
2023-04-15T23:27:41.220Z,93163.25
2023-04-15T23:30:08.918Z,93157.31
2023-04-15T23:32:35.996Z,93157.31
2023-04-15T23:35:03.332Z,93165.03
2023-04-15T23:37:31.416Z,93163.78
2023-04-15T23:39:58.393Z,93162.97
2023-04-15T23:42:27.184Z,93158.34
2023-04-15T23:44:54.111Z,93152.41
2023-04-15T23:47:21.496Z,93155.69
2023-04-15T23:49:48.519Z,93155.69
2023-04-15T23:52:15.485Z,93148.81
2023-04-15T23:54:42.535Z,93148.34
2023-04-15T23:57:09.590Z,93147.19
2023-04-15T23:59:37.896Z,93138.38
